Time;durP1;ratioP1;P1;durP2;ratioP2;P2;SDS_P1;SDS_P2;PMS_P1;PMS_P2;Temp;Humidity;BMP_temperature;BMP_pressure;BME280_temperature;BME280_humidity;BME280_pressure;Samples;Min_cycle;Max_cycle;Signal;HPM_P1;HPM_P2
2021/06/16 00:00:55;;;;;;;3.47;3.23;;;18.30;99.90;;;;;;4844482;29;20463;-88
2021/06/16 00:06:11;;;;;;;4.40;4.00;;;18.30;99.90;;;;;;4844872;29;20458;-88
2021/06/16 00:08:36;;;;;;;5.43;3.90;;;18.30;99.90;;;;;;4828395;29;20479;-88
2021/06/16 00:11:02;;;;;;;3.47;3.27;;;18.10;99.90;;;;;;4859053;29;20468;-88
2021/06/16 00:13:28;;;;;;;3.80;3.50;;;17.90;99.90;;;;;;4844623;29;20206;-90
2021/06/16 00:15:55;;;;;;;3.77;3.47;;;17.80;99.90;;;;;;4839905;29;20203;-88
2021/06/16 00:18:21;;;;;;;6.50;3.97;;;17.70;99.90;;;;;;4841785;29;20195;-88
2021/06/16 00:20:46;;;;;;;4.10;3.63;;;17.60;99.90;;;;;;4844105;29;20452;-88
2021/06/16 00:23:14;;;;;;;3.83;3.50;;;17.60;99.90;;;;;;4830763;29;20203;-88
2021/06/16 00:25:39;;;;;;;6.43;4.30;;;17.50;99.90;;;;;;4843661;29;20183;-90
2021/06/16 00:28:06;;;;;;;4.33;4.03;;;17.40;99.90;;;;;;4845784;29;20455;-87
2021/06/16 00:30:32;;;;;;;4.90;3.90;;;17.40;99.90;;;;;;4844743;29;20186;-88
2021/06/16 00:32:59;;;;;;;4.37;4.07;;;17.40;99.90;;;;;;4842094;29;20490;-88
2021/06/16 00:35:25;;;;;;;5.10;4.40;;;17.30;99.90;;;;;;4842007;29;20448;-88
2021/06/16 00:37:52;;;;;;;9.20;5.27;;;17.40;99.90;;;;;;4846698;29;20499;-88
2021/06/16 00:40:23;;;;;;;4.27;3.97;;;17.40;99.90;;;;;;4846310;29;20195;-88
2021/06/16 00:42:49;;;;;;;4.77;4.37;;;17.40;99.90;;;;;;4841573;29;21755;-88
2021/06/16 00:45:17;;;;;;;4.77;4.27;;;17.40;99.90;;;;;;4845759;29;20462;-89
2021/06/16 00:47:43;;;;;;;4.83;3.57;;;17.40;99.90;;;;;;4842899;29;20463;-88
2021/06/16 00:50:10;;;;;;;4.23;3.93;;;17.40;99.90;;;;;;4843769;29;20472;-88
2021/06/16 00:52:35;;;;;;;4.40;4.10;;;17.40;99.90;;;;;;4841658;29;20487;-88
2021/06/16 00:55:02;;;;;;;4.40;4.00;;;17.30;99.90;;;;;;4862150;29;20447;-88
2021/06/16 00:57:27;;;;;;;4.90;4.50;;;17.30;99.90;;;;;;4846011;29;20201;-87
2021/06/16 01:00:13;;;;;;;5.33;3.70;;;17.20;99.90;;;;;;4844016;29;20455;-88
2021/06/16 01:02:45;;;;;;;6.50;4.37;;;17.10;99.90;;;;;;4849076;29;20204;-91
2021/06/16 01:05:11;;;;;;;4.80;4.50;;;17.10;99.90;;;;;;4861000;29;20447;-88
2021/06/16 01:07:43;;;;;;;5.03;4.20;;;17.10;99.90;;;;;;4844361;29;20467;-88
2021/06/16 01:10:16;;;;;;;5.23;4.83;;;17.20;99.90;;;;;;4849708;29;20458;-88
2021/06/16 01:12:47;;;;;;;4.60;4.17;;;17.30;99.90;;;;;;4849040;29;20534;-88
2021/06/16 01:15:25;;;;;;;4.90;4.20;;;17.30;99.90;;;;;;4862262;29;20542;-88
2021/06/16 01:18:01;;;;;;;4.50;4.10;;;17.20;99.90;;;;;;4857874;29;20517;-88
2021/06/16 01:20:31;;;;;;;5.13;4.73;;;17.10;99.90;;;;;;4847029;29;21992;-88
2021/06/16 01:23:09;;;;;;;5.80;4.33;;;17.00;99.90;;;;;;4844934;29;21134;-88
2021/06/16 01:26:03;;;;;;;6.33;4.07;;;17.00;99.90;;;;;;4864357;29;20459;-88
2021/06/16 01:28:44;;;;;;;4.23;3.93;;;16.90;99.90;;;;;;4845349;29;20462;-89
2021/06/16 01:31:12;;;;;;;4.90;4.50;;;16.80;99.90;;;;;;4845021;29;20455;-89
2021/06/16 01:33:38;;;;;;;4.40;4.07;;;16.70;99.90;;;;;;4861383;29;20945;-88
2021/06/16 01:36:07;;;;;;;4.50;4.00;;;16.80;99.90;;;;;;4848677;29;20458;-88
2021/06/16 01:38:33;;;;;;;4.80;4.37;;;16.70;99.90;;;;;;4846994;29;20502;-89
2021/06/16 01:41:01;;;;;;;4.83;4.20;;;16.60;99.90;;;;;;4862952;29;20466;-89
2021/06/16 01:43:27;;;;;;;4.97;4.57;;;16.60;99.90;;;;;;4864723;29;20486;-89
2021/06/16 01:45:59;;;;;;;4.57;4.20;;;16.50;99.90;;;;;;4844206;29;20464;-90
2021/06/16 01:48:25;;;;;;;5.93;4.87;;;16.40;99.90;;;;;;4844225;29;20492;-88
2021/06/16 01:50:53;;;;;;;6.63;4.47;;;16.50;99.90;;;;;;4845485;29;20448;-88
2021/06/16 01:53:20;;;;;;;4.80;4.40;;;16.60;99.90;;;;;;4848999;29;20448;-88
2021/06/16 01:55:47;;;;;;;6.67;4.70;;;16.50;99.90;;;;;;4843848;29;22011;-88
2021/06/16 01:58:14;;;;;;;5.17;4.67;;;16.40;99.90;;;;;;4863641;29;20446;-88
2021/06/16 02:00:40;;;;;;;7.50;4.67;;;16.30;99.90;;;;;;4845466;29;20442;-87
2021/06/16 02:03:06;;;;;;;4.80;4.40;;;16.30;99.90;;;;;;4861731;29;20859;-87
2021/06/16 02:05:33;;;;;;;4.37;4.07;;;16.30;99.90;;;;;;4862130;29;20503;-87
2021/06/16 02:08:02;;;;;;;4.27;3.87;;;16.40;99.90;;;;;;4844947;29;20476;-87
2021/06/16 02:10:32;;;;;;;4.70;4.30;;;16.50;99.90;;;;;;4845756;29;20442;-87
2021/06/16 02:13:01;;;;;;;4.57;4.17;;;16.50;99.90;;;;;;4863776;29;20554;-87
2021/06/16 02:15:34;;;;;;;4.83;4.43;;;16.40;99.90;;;;;;4863850;29;20800;-87
2021/06/16 02:18:01;;;;;;;4.70;4.30;;;16.40;99.90;;;;;;4845741;29;20459;-87
2021/06/16 02:20:27;;;;;;;5.03;4.60;;;16.40;99.90;;;;;;4864864;29;20443;-88
2021/06/16 02:22:53;;;;;;;5.37;4.70;;;16.40;99.90;;;;;;4862676;29;20500;-88
2021/06/16 02:25:20;;;;;;;5.17;4.67;;;16.40;99.90;;;;;;4846790;29;20985;-88
2021/06/16 02:27:45;;;;;;;4.70;4.30;;;16.30;99.90;;;;;;4846859;29;20553;-88
2021/06/16 02:30:12;;;;;;;4.87;4.47;;;16.30;99.90;;;;;;4847178;29;21052;-88
2021/06/16 02:32:38;;;;;;;4.33;3.93;;;16.20;99.90;;;;;;4847092;29;20222;-88
2021/06/16 02:35:05;;;;;;;5.23;4.50;;;16.20;99.90;;;;;;4861023;29;20487;-88
2021/06/16 02:37:32;;;;;;;6.00;5.13;;;16.10;99.90;;;;;;4845537;29;20486;-90
2021/06/16 02:40:04;;;;;;;5.30;4.80;;;16.10;99.90;;;;;;4850793;29;20989;-88
2021/06/16 02:42:30;;;;;;;4.93;4.53;;;16.20;99.90;;;;;;4847544;29;20487;-89
2021/06/16 02:44:59;;;;;;;6.40;5.03;;;16.20;99.90;;;;;;4845172;29;20464;-89
2021/06/16 02:47:26;;;;;;;6.13;4.53;;;16.20;99.90;;;;;;4846211;29;20455;-89
2021/06/16 02:50:01;;;;;;;5.93;4.50;;;16.20;99.90;;;;;;4861131;29;20438;-89
2021/06/16 02:52:29;;;;;;;5.70;4.40;;;16.10;99.90;;;;;;4862135;29;20521;-89
2021/06/16 02:55:02;;;;;;;4.33;3.93;;;16.10;99.90;;;;;;4849341;29;20819;-88
2021/06/16 02:57:30;;;;;;;4.70;3.97;;;16.10;99.90;;;;;;4844028;29;20450;-88
2021/06/16 02:59:57;;;;;;;4.47;4.07;;;16.10;99.90;;;;;;4843487;29;20870;-89
2021/06/16 03:05:03;;;;;;;4.90;4.20;;;16.20;99.90;;;;;;4851038;29;21010;-89
2021/06/16 03:07:32;;;;;;;4.80;4.40;;;16.10;99.90;;;;;;4845099;29;20475;-89
2021/06/16 03:09:59;;;;;;;5.10;4.70;;;16.10;99.90;;;;;;4860184;29;20450;-88
2021/06/16 03:12:26;;;;;;;5.13;4.63;;;16.00;99.90;;;;;;4847920;29;22304;-89
2021/06/16 03:14:53;;;;;;;5.30;4.87;;;15.90;99.90;;;;;;4833474;29;20509;-89
2021/06/16 03:17:20;;;;;;;5.30;4.90;;;15.90;99.90;;;;;;4844575;29;20550;-88
2021/06/16 03:19:48;;;;;;;4.77;4.37;;;15.90;99.90;;;;;;4847216;29;20478;-88
2021/06/16 03:22:15;;;;;;;4.50;4.20;;;15.90;99.90;;;;;;4845522;29;20490;-89
2021/06/16 03:24:44;;;;;;;4.83;4.40;;;15.90;99.90;;;;;;4847645;29;20446;-87
2021/06/16 03:27:11;;;;;;;5.60;4.87;;;15.90;99.90;;;;;;4858500;29;20478;-89
2021/06/16 03:29:39;;;;;;;4.67;4.20;;;15.90;99.90;;;;;;4848930;29;20439;-88
2021/06/16 03:32:08;;;;;;;5.43;4.97;;;15.90;99.90;;;;;;4848070;29;20474;-88
2021/06/16 03:34:36;;;;;;;5.80;4.40;;;15.90;99.90;;;;;;4846500;29;21601;-88
2021/06/16 03:37:04;;;;;;;5.17;4.67;;;15.90;99.90;;;;;;4844240;29;20463;-89
2021/06/16 03:39:32;;;;;;;5.47;5.03;;;15.90;99.90;;;;;;4861100;29;20447;-88
2021/06/16 03:41:59;;;;;;;4.83;4.50;;;15.90;99.90;;;;;;4845584;29;20494;-89
2021/06/16 03:44:27;;;;;;;5.53;4.57;;;15.90;99.90;;;;;;4844756;29;20526;-88
2021/06/16 03:46:54;;;;;;;4.90;4.30;;;15.80;99.90;;;;;;4844330;29;20511;-88
2021/06/16 03:49:23;;;;;;;5.60;4.97;;;15.80;99.90;;;;;;4860469;29;20457;-88
2021/06/16 03:51:49;;;;;;;6.13;4.90;;;15.90;99.90;;;;;;4864114;29;20461;-88
2021/06/16 03:54:16;;;;;;;10.27;5.40;;;15.90;99.90;;;;;;4841871;29;20966;-88
2021/06/16 03:56:45;;;;;;;4.80;4.33;;;16.00;99.90;;;;;;4844334;29;20185;-88
2021/06/16 03:59:12;;;;;;;5.43;4.47;;;16.00;99.90;;;;;;4858709;29;20455;-89
2021/06/16 04:01:41;;;;;;;5.43;4.90;;;16.20;99.90;;;;;;4846922;29;20462;-89
2021/06/16 04:04:09;;;;;;;5.13;4.73;;;16.30;99.90;;;;;;4846534;29;20455;-89
2021/06/16 04:06:37;;;;;;;5.30;4.90;;;16.40;99.90;;;;;;4848224;29;20455;-89
2021/06/16 04:09:04;;;;;;;4.90;4.50;;;16.40;99.90;;;;;;4847716;29;20443;-88
2021/06/16 04:11:31;;;;;;;5.80;5.40;;;16.40;99.90;;;;;;4860111;29;20507;-85
2021/06/16 04:13:57;;;;;;;6.37;5.77;;;16.50;99.90;;;;;;4845457;29;20456;-86
2021/06/16 04:16:28;;;;;;;6.47;5.60;;;16.70;99.90;;;;;;4843681;29;20968;-85
2021/06/16 04:18:58;;;;;;;6.33;5.80;;;16.90;99.90;;;;;;4842255;29;20462;-85
2021/06/16 04:21:24;;;;;;;6.77;6.13;;;16.90;99.90;;;;;;4842061;29;21056;-85
2021/06/16 04:23:51;;;;;;;8.20;6.23;;;17.00;99.90;;;;;;4840765;29;20475;-86
2021/06/16 04:26:18;;;;;;;6.70;6.10;;;17.10;99.90;;;;;;4843385;29;20254;-85
2021/06/16 04:28:44;;;;;;;7.00;5.70;;;17.10;99.90;;;;;;4842522;29;20462;-86
2021/06/16 04:31:20;;;;;;;5.60;5.20;;;17.10;99.90;;;;;;4860529;29;20941;-85
2021/06/16 04:34:01;;;;;;;5.60;5.20;;;17.20;99.90;;;;;;4842985;29;20470;-85
2021/06/16 04:36:29;;;;;;;8.47;5.70;;;17.00;99.90;;;;;;4844010;29;20451;-85
2021/06/16 04:38:54;;;;;;;6.87;5.23;;;16.90;99.90;;;;;;4845270;29;20209;-85
2021/06/16 04:41:20;;;;;;;7.07;5.53;;;16.90;99.90;;;;;;4858364;29;20479;-85
2021/06/16 04:43:46;;;;;;;6.13;5.13;;;17.00;99.90;;;;;;4849475;29;20253;-85
2021/06/16 04:46:11;;;;;;;5.13;4.70;;;17.10;99.90;;;;;;4857476;29;20241;-86
2021/06/16 04:48:41;;;;;;;7.53;5.50;;;17.10;99.90;;;;;;4847184;29;20204;-85
2021/06/16 04:51:07;;;;;;;5.90;5.40;;;17.10;99.90;;;;;;4862250;29;20187;-86
2021/06/16 04:53:32;;;;;;;5.40;5.00;;;17.00;99.90;;;;;;4846343;29;22600;-86
2021/06/16 04:55:58;;;;;;;5.67;5.17;;;17.00;99.90;;;;;;4845979;29;20741;-86
2021/06/16 04:58:24;;;;;;;5.53;5.03;;;17.00;99.90;;;;;;4842823;29;20628;-86
2021/06/16 05:00:50;;;;;;;5.37;4.87;;;16.90;99.90;;;;;;4847558;29;20548;-86
2021/06/16 05:03:16;;;;;;;6.30;5.73;;;17.00;99.90;;;;;;4848439;29;20486;-86
2021/06/16 05:05:41;;;;;;;6.23;5.63;;;17.10;99.90;;;;;;4845466;29;20191;-86
2021/06/16 05:08:07;;;;;;;5.93;5.43;;;17.20;99.90;;;;;;4861954;29;20325;-86
2021/06/16 05:10:33;;;;;;;8.63;5.50;;;17.30;99.90;;;;;;4845539;29;20197;-86
2021/06/16 05:12:59;;;;;;;6.37;5.70;;;17.30;99.90;;;;;;4845068;29;22333;-86
2021/06/16 05:15:24;;;;;;;6.80;6.20;;;17.20;99.90;;;;;;4844644;29;20661;-86
2021/06/16 05:17:50;;;;;;;5.77;5.30;;;17.40;99.90;;;;;;4859601;29;20564;-86
2021/06/16 05:20:16;;;;;;;6.20;5.63;;;17.40;99.90;;;;;;4850152;29;20214;-86
2021/06/16 05:22:45;;;;;;;5.50;5.03;;;17.40;99.90;;;;;;4841914;29;20244;-86
2021/06/16 05:25:11;;;;;;;9.10;5.40;;;17.50;99.90;;;;;;4845184;29;20245;-86
2021/06/16 05:27:37;;;;;;;6.93;6.23;;;17.60;99.90;;;;;;4845890;29;20934;-86
2021/06/16 05:30:05;;;;;;;8.40;6.00;;;17.60;99.90;;;;;;4843937;29;20596;-86
2021/06/16 05:32:31;;;;;;;7.00;6.40;;;17.70;99.90;;;;;;4846497;29;20446;-86
2021/06/16 05:34:56;;;;;;;6.90;6.20;;;17.90;99.90;;;;;;4844122;29;20458;-86
2021/06/16 05:37:22;;;;;;;6.53;5.93;;;17.90;99.90;;;;;;4844357;29;20198;-86
2021/06/16 05:39:48;;;;;;;7.07;6.33;;;17.90;99.90;;;;;;4847089;29;20285;-86
2021/06/16 05:42:13;;;;;;;7.33;6.17;;;18.10;99.90;;;;;;4860753;29;20279;-86
2021/06/16 05:44:39;;;;;;;6.53;5.00;;;18.10;99.90;;;;;;4864160;29;20686;-86
2021/06/16 05:47:05;;;;;;;6.27;5.77;;;18.10;99.90;;;;;;4844215;29;20429;-86
2021/06/16 05:49:31;;;;;;;6.43;5.73;;;18.20;99.90;;;;;;4846468;29;20199;-86
2021/06/16 05:51:57;;;;;;;6.60;6.10;;;18.30;99.90;;;;;;4847574;29;20198;-87
2021/06/16 05:54:23;;;;;;;6.63;5.73;;;18.40;99.90;;;;;;4863056;29;20438;-87
2021/06/16 05:56:49;;;;;;;7.57;5.50;;;18.40;99.90;;;;;;4849234;29;20572;-87
2021/06/16 05:59:15;;;;;;;8.13;6.00;;;18.60;99.90;;;;;;4848606;29;20477;-87
2021/06/16 06:01:40;;;;;;;6.50;5.90;;;18.70;99.90;;;;;;4862755;29;20214;-87
2021/06/16 06:04:06;;;;;;;7.03;5.90;;;18.80;99.90;;;;;;4847783;29;21721;-86
2021/06/16 06:06:33;;;;;;;6.20;5.60;;;19.00;99.90;;;;;;4863946;29;20197;-87
2021/06/16 06:08:59;;;;;;;6.37;5.37;;;19.10;99.90;;;;;;4844271;29;20921;-87
2021/06/16 06:11:25;;;;;;;5.30;4.90;;;19.20;99.90;;;;;;4860326;29;20455;-87
2021/06/16 06:13:51;;;;;;;6.70;5.50;;;19.30;99.90;;;;;;4848738;29;20194;-87
2021/06/16 06:16:17;;;;;;;6.23;5.43;;;19.40;99.90;;;;;;4845620;29;20223;-86
2021/06/16 06:18:43;;;;;;;6.07;5.57;;;19.60;99.90;;;;;;4848659;29;20539;-87
2021/06/16 06:21:09;;;;;;;6.33;5.73;;;19.70;99.90;;;;;;4849691;29;20861;-86
2021/06/16 06:23:35;;;;;;;8.20;5.50;;;19.90;99.90;;;;;;4845992;29;20263;-86
2021/06/16 06:26:01;;;;;;;6.03;5.53;;;20.10;99.90;;;;;;4848127;29;20533;-87
2021/06/16 06:28:27;;;;;;;7.53;5.83;;;20.10;99.90;;;;;;4863448;29;20542;-86
2021/06/16 06:30:52;;;;;;;8.10;6.37;;;20.20;99.90;;;;;;4837951;29;20217;-87
2021/06/16 06:33:20;;;;;;;6.23;5.63;;;20.40;99.90;;;;;;4860921;29;20621;-86
2021/06/16 06:35:46;;;;;;;6.63;5.73;;;20.50;99.90;;;;;;4849731;29;20191;-86
2021/06/16 06:38:13;;;;;;;5.97;5.47;;;20.60;99.90;;;;;;4862275;29;20941;-86
2021/06/16 06:40:40;;;;;;;6.47;5.40;;;20.80;99.90;;;;;;4845961;29;20230;-86
2021/06/16 06:43:06;;;;;;;7.50;5.90;;;20.90;99.90;;;;;;4859511;29;20918;-87
2021/06/16 06:45:32;;;;;;;6.10;5.50;;;21.00;99.90;;;;;;4860590;29;20462;-87
2021/06/16 06:47:57;;;;;;;6.37;5.77;;;21.10;99.90;;;;;;4844139;29;20201;-86
2021/06/16 06:50:23;;;;;;;7.13;6.17;;;21.20;99.90;;;;;;4847226;29;20752;-87
2021/06/16 06:52:49;;;;;;;6.13;5.70;;;21.30;99.90;;;;;;4846949;29;20218;-86
2021/06/16 06:55:15;;;;;;;5.73;5.23;;;21.30;99.90;;;;;;4846028;29;20684;-87
2021/06/16 06:57:42;;;;;;;6.50;5.37;;;21.40;99.90;;;;;;4849081;29;20197;-86
2021/06/16 07:00:09;;;;;;;6.27;5.73;;;21.60;99.90;;;;;;4846942;29;20450;-86
2021/06/16 07:02:35;;;;;;;6.50;5.50;;;21.60;99.90;;;;;;4844254;29;20573;-86
2021/06/16 07:05:01;;;;;;;8.80;5.67;;;21.70;99.90;;;;;;4841952;29;21123;-86
2021/06/16 07:07:26;;;;;;;5.90;5.30;;;21.80;99.90;;;;;;4843150;29;20523;-87
2021/06/16 07:09:52;;;;;;;5.67;5.07;;;22.00;99.80;;;;;;4844867;29;20190;-87
2021/06/16 07:12:18;;;;;;;5.57;5.07;;;22.10;98.30;;;;;;4845976;29;20613;-87
2021/06/16 07:14:44;;;;;;;5.70;5.20;;;22.10;98.70;;;;;;4846059;29;20206;-87
2021/06/16 07:17:10;;;;;;;5.23;4.83;;;22.30;98.80;;;;;;4859798;29;20458;-87
2021/06/16 07:19:36;;;;;;;9.10;4.80;;;22.40;97.30;;;;;;4845691;29;20977;-87
2021/06/16 07:22:05;;;;;;;5.13;4.73;;;22.40;97.30;;;;;;4846219;29;20581;-86
2021/06/16 07:24:30;;;;;;;5.83;4.77;;;22.50;97.40;;;;;;4861693;29;20558;-86
2021/06/16 07:26:56;;;;;;;5.37;4.73;;;22.70;97.70;;;;;;4859127;29;20446;-87
2021/06/16 07:29:22;;;;;;;5.20;4.70;;;22.80;96.80;;;;;;4844970;29;20257;-87
2021/06/16 07:31:48;;;;;;;5.63;4.60;;;22.70;97.20;;;;;;4846612;29;20237;-87
2021/06/16 07:34:17;;;;;;;5.60;4.30;;;22.90;97.40;;;;;;4859380;29;20826;-87
2021/06/16 07:36:43;;;;;;;5.57;4.30;;;23.10;96.50;;;;;;4851184;29;20559;-87
2021/06/16 07:39:08;;;;;;;5.53;5.03;;;23.30;95.80;;;;;;4847938;29;20453;-87
2021/06/16 07:41:35;;;;;;;5.13;4.63;;;23.10;95.60;;;;;;4846432;29;20218;-87
2021/06/16 07:44:00;;;;;;;5.00;4.47;;;23.00;95.90;;;;;;4846788;29;20504;-87
2021/06/16 07:46:26;;;;;;;5.10;4.70;;;23.30;96.10;;;;;;4846099;29;20936;-86
2021/06/16 07:48:52;;;;;;;6.50;4.90;;;23.60;95.40;;;;;;4844726;29;20648;-87
2021/06/16 07:51:19;;;;;;;4.83;4.47;;;23.90;95.40;;;;;;4845600;29;20194;-87
2021/06/16 07:53:44;;;;;;;5.67;4.00;;;24.20;95.00;;;;;;4859992;29;20202;-87
2021/06/16 07:56:10;;;;;;;5.77;4.40;;;24.30;94.10;;;;;;4847070;29;21214;-87
2021/06/16 07:58:36;;;;;;;6.40;4.57;;;24.50;96.10;;;;;;4842438;29;20195;-87
2021/06/16 08:01:02;;;;;;;4.27;3.97;;;24.50;94.60;;;;;;4846252;29;20241;-87
2021/06/16 08:03:28;;;;;;;6.03;4.43;;;24.70;94.90;;;;;;4844417;29;20989;-87
2021/06/16 08:05:55;;;;;;;5.07;4.23;;;24.80;94.90;;;;;;4845748;29;20285;-87
2021/06/16 08:08:21;;;;;;;5.60;3.90;;;24.70;94.90;;;;;;4845437;29;20533;-87
2021/06/16 08:10:47;;;;;;;4.60;4.03;;;24.70;94.90;;;;;;4847839;29;20446;-87
2021/06/16 08:13:13;;;;;;;4.60;3.90;;;24.80;93.10;;;;;;4846404;29;20473;-88
2021/06/16 08:15:39;;;;;;;5.23;4.13;;;25.10;94.50;;;;;;4861418;29;20447;-87
2021/06/16 08:18:05;;;;;;;5.00;4.60;;;25.10;95.70;;;;;;4849584;29;20241;-87
2021/06/16 08:20:31;;;;;;;4.80;4.30;;;25.00;95.30;;;;;;4847037;29;20455;-87
2021/06/16 08:22:56;;;;;;;4.53;4.10;;;25.10;96.40;;;;;;4861138;29;20222;-87
2021/06/16 08:25:22;;;;;;;5.43;4.77;;;25.30;94.70;;;;;;4859754;29;20620;-87
2021/06/16 08:27:48;;;;;;;5.87;5.27;;;25.50;95.40;;;;;;4855688;29;20913;-87
2021/06/16 08:30:15;;;;;;;4.60;4.20;;;25.80;94.00;;;;;;4843715;29;20274;-87
2021/06/16 08:32:42;;;;;;;4.80;4.40;;;26.00;93.00;;;;;;4844652;29;21524;-87
2021/06/16 08:35:08;;;;;;;4.60;4.20;;;26.00;93.10;;;;;;4848283;29;20501;-88
2021/06/16 08:37:34;;;;;;;4.43;4.13;;;26.10;94.50;;;;;;4843338;29;20814;-87
2021/06/16 08:40:00;;;;;;;5.30;4.80;;;25.90;94.70;;;;;;4841773;29;20502;-87
2021/06/16 08:42:27;;;;;;;5.13;4.67;;;25.40;96.00;;;;;;4860664;29;20696;-87
2021/06/16 08:44:54;;;;;;;5.97;4.60;;;25.30;95.50;;;;;;4859848;29;20201;-87
2021/06/16 08:47:28;;;;;;;5.80;5.20;;;25.60;98.20;;;;;;4843921;29;20984;-88
2021/06/16 08:49:54;;;;;;;5.73;4.33;;;25.90;98.10;;;;;;4844429;29;20534;-87
2021/06/16 08:52:20;;;;;;;4.97;4.67;;;26.00;97.10;;;;;;4844499;29;20451;-87
2021/06/16 08:54:46;;;;;;;5.00;4.50;;;26.20;97.50;;;;;;4843450;29;20454;-87
2021/06/16 08:57:12;;;;;;;5.03;4.50;;;26.40;98.00;;;;;;4859431;29;20455;-87
2021/06/16 08:59:38;;;;;;;7.23;4.93;;;26.60;96.60;;;;;;4857734;29;20197;-88
2021/06/16 09:02:05;;;;;;;4.73;4.30;;;26.70;97.10;;;;;;4846081;29;20633;-87
2021/06/16 09:04:43;;;;;;;7.43;4.57;;;26.80;96.00;;;;;;4844587;29;20198;-87
2021/06/16 09:07:14;;;;;;;4.80;4.30;;;26.80;95.10;;;;;;4841764;29;20976;-88
2021/06/16 09:09:40;;;;;;;4.90;4.50;;;26.80;95.10;;;;;;4844199;29;20473;-87
2021/06/16 09:12:07;;;;;;;5.23;4.50;;;26.80;94.30;;;;;;4845457;29;20471;-87
2021/06/16 09:14:32;;;;;;;6.80;4.73;;;26.90;94.90;;;;;;4845134;29;20931;-87
2021/06/16 09:17:03;;;;;;;8.13;4.70;;;27.00;95.20;;;;;;4845220;29;20748;-87
2021/06/16 09:19:33;;;;;;;4.20;3.80;;;27.20;94.30;;;;;;4843747;29;20199;-87
2021/06/16 09:22:08;;;;;;;4.60;4.27;;;27.20;92.70;;;;;;4846207;29;20482;-87
2021/06/16 09:24:51;;;;;;;4.63;4.23;;;27.40;93.50;;;;;;4850387;29;20438;-86
2021/06/16 09:27:43;;;;;;;4.63;3.80;;;27.30;93.10;;;;;;4850147;29;20568;-87
2021/06/16 09:30:30;;;;;;;5.97;4.30;;;27.40;92.70;;;;;;4849256;29;20872;-87
2021/06/16 09:33:06;;;;;;;5.70;4.23;;;27.70;92.00;;;;;;4862799;29;20539;-87
2021/06/16 09:35:37;;;;;;;4.50;4.10;;;27.70;92.40;;;;;;4847642;29;20454;-87
2021/06/16 09:38:06;;;;;;;7.83;4.27;;;27.70;91.90;;;;;;4862969;29;20462;-87
2021/06/16 09:40:43;;;;;;;4.67;4.27;;;27.70;92.60;;;;;;4849187;29;21036;-87
2021/06/16 09:43:10;;;;;;;5.03;4.20;;;27.80;91.30;;;;;;4850448;29;20855;-87
2021/06/16 09:45:40;;;;;;;6.03;4.10;;;28.10;90.90;;;;;;4844381;29;20492;-87
2021/06/16 09:48:29;;;;;;;4.80;4.40;;;28.30;90.50;;;;;;4844320;29;20555;-87
2021/06/16 09:51:13;;;;;;;4.97;4.47;;;28.30;91.00;;;;;;4861865;29;20463;-87
2021/06/16 09:56:42;;;;;;;4.50;4.20;;;28.80;90.10;;;;;;4850337;29;20466;-87
2021/06/16 09:59:08;;;;;;;5.63;4.23;;;28.90;85.30;;;;;;4848966;29;20443;-87
2021/06/16 10:01:56;;;;;;;7.33;4.30;;;29.00;90.20;;;;;;4847727;29;20486;-88
2021/06/16 10:04:43;;;;;;;9.07;4.53;;;29.30;87.80;;;;;;4849200;29;20514;-88
2021/06/16 10:07:20;;;;;;;5.07;4.27;;;29.10;83.00;;;;;;4848639;29;20466;-87
2021/06/16 10:10:11;;;;;;;4.90;4.50;;;29.10;85.30;;;;;;4849491;29;21052;-87
2021/06/16 10:12:41;;;;;;;5.00;4.50;;;29.40;87.40;;;;;;4863339;29;20463;-87
2021/06/16 10:15:13;;;;;;;4.93;4.53;;;29.20;87.70;;;;;;4847253;29;20450;-87
2021/06/16 10:17:39;;;;;;;4.43;4.00;;;29.10;83.00;;;;;;4850894;29;20478;-87
2021/06/16 10:20:08;;;;;;;4.93;4.53;;;29.30;86.80;;;;;;4848021;29;20474;-87
2021/06/16 10:22:34;;;;;;;5.63;4.53;;;29.30;83.70;;;;;;4837668;29;20238;-87
2021/06/16 10:25:01;;;;;;;4.73;4.20;;;29.50;83.60;;;;;;4847966;29;20821;-87
2021/06/16 10:27:29;;;;;;;4.70;4.37;;;29.60;86.20;;;;;;4864215;29;20458;-88
2021/06/16 10:30:19;;;;;;;4.83;4.33;;;29.70;85.20;;;;;;4847662;29;20503;-87
2021/06/16 10:32:49;;;;;;;5.63;4.63;;;29.90;86.00;;;;;;4846064;29;20483;-87
2021/06/16 10:35:33;;;;;;;5.13;4.70;;;30.00;88.00;;;;;;4846962;29;20662;-87
2021/06/16 10:38:18;;;;;;;6.50;4.87;;;30.00;84.30;;;;;;4866731;29;20469;-87
2021/06/16 10:40:54;;;;;;;5.03;4.63;;;30.10;85.20;;;;;;4847196;29;20459;-87
2021/06/16 10:43:39;;;;;;;5.00;4.60;;;30.30;83.10;;;;;;4861057;29;20482;-87
2021/06/16 10:46:07;;;;;;;6.07;4.93;;;30.50;80.80;;;;;;4846277;29;20446;-87
2021/06/16 10:48:58;;;;;;;5.13;4.63;;;30.50;84.10;;;;;;4860894;29;20877;-87
2021/06/16 10:51:28;;;;;;;4.50;4.20;;;30.60;83.60;;;;;;4847468;29;20490;-87
2021/06/16 10:54:33;;;;;;;5.13;4.63;;;30.80;72.50;;;;;;4846126;29;20474;-87
2021/06/16 10:57:10;;;;;;;7.33;5.20;;;30.90;79.10;;;;;;4782631;29;20511;-87
2021/06/16 10:59:45;;;;;;;4.53;4.13;;;30.60;78.70;;;;;;4785784;29;20453;-87
2021/06/16 11:02:14;;;;;;;5.80;5.20;;;30.60;75.20;;;;;;4817938;29;21023;-87
2021/06/16 11:04:41;;;;;;;7.63;4.97;;;30.80;75.60;;;;;;4858214;29;20450;-87
2021/06/16 11:07:29;;;;;;;5.60;4.70;;;30.70;80.20;;;;;;4846826;29;20451;-87
2021/06/16 11:09:57;;;;;;;4.40;4.00;;;30.80;69.80;;;;;;4844329;29;20447;-87
2021/06/16 11:12:36;;;;;;;4.83;4.47;;;31.00;75.20;;;;;;4845827;29;20462;-87
2021/06/16 11:15:31;;;;;;;4.03;3.73;;;31.20;68.90;;;;;;4847788;29;20977;-87
2021/06/16 11:17:59;;;;;;;5.03;3.80;;;31.40;72.00;;;;;;4861805;29;20482;-87
2021/06/16 11:20:41;;;;;;;5.60;4.10;;;31.90;59.80;;;;;;4845088;29;20454;-87
2021/06/16 11:23:08;;;;;;;5.57;4.03;;;32.20;68.50;;;;;;4842962;29;20484;-87
2021/06/16 11:25:40;;;;;;;4.33;4.03;;;32.40;60.10;;;;;;4848016;29;20449;-87
2021/06/16 11:28:18;;;;;;;4.17;3.73;;;32.30;56.00;;;;;;4841657;29;21111;-86
2021/06/16 11:30:51;;;;;;;4.37;4.07;;;31.60;54.30;;;;;;4845799;29;20546;-87
2021/06/16 11:33:17;;;;;;;4.43;4.13;;;31.10;55.40;;;;;;4844288;29;20443;-87
2021/06/16 11:35:55;;;;;;;4.37;3.93;;;30.70;58.70;;;;;;4842851;29;20501;-87
2021/06/16 11:38:21;;;;;;;4.10;3.87;;;31.10;59.80;;;;;;4844590;29;20562;-87
2021/06/16 11:40:55;;;;;;;4.00;3.80;;;31.70;61.50;;;;;;4860249;29;21035;-87
2021/06/16 11:43:42;;;;;;;4.50;4.20;;;31.80;64.00;;;;;;4842797;29;20592;-87
2021/06/16 11:46:34;;;;;;;4.33;3.93;;;31.80;67.20;;;;;;4847792;29;20446;-87
2021/06/16 11:49:05;;;;;;;4.07;3.87;;;31.40;61.10;;;;;;4844303;29;20587;-86
2021/06/16 11:51:42;;;;;;;4.80;4.10;;;31.60;59.70;;;;;;4845503;29;20462;-87
2021/06/16 11:54:29;;;;;;;4.30;4.00;;;31.90;62.70;;;;;;4848507;29;20950;-87
2021/06/16 11:57:14;;;;;;;5.37;3.90;;;32.10;56.00;;;;;;4856318;29;20462;-87
2021/06/16 11:59:51;;;;;;;8.93;4.40;;;32.90;55.50;;;;;;4843263;29;20550;-87
2021/06/16 12:02:25;;;;;;;4.97;4.40;;;33.40;55.00;;;;;;4843254;29;20482;-87
2021/06/16 12:05:13;;;;;;;3.90;3.60;;;33.30;55.40;;;;;;4840745;29;20453;-87
2021/06/16 12:07:45;;;;;;;4.43;4.23;;;32.50;56.80;;;;;;4858373;29;20810;-87
2021/06/16 12:10:23;;;;;;;4.40;4.10;;;32.20;56.90;;;;;;4843962;29;20479;-87
2021/06/16 12:13:01;;;;;;;4.47;4.07;;;32.30;56.70;;;;;;4841239;29;20460;-87
2021/06/16 12:15:28;;;;;;;6.40;4.33;;;32.60;56.80;;;;;;4844604;29;20458;-87
2021/06/16 12:17:58;;;;;;;4.30;3.90;;;32.80;55.80;;;;;;4839818;29;20457;-87
2021/06/16 12:20:28;;;;;;;4.53;3.87;;;32.60;54.60;;;;;;4839895;29;20462;-87
2021/06/16 12:22:54;;;;;;;3.73;3.50;;;32.50;54.50;;;;;;4844836;29;20573;-87
2021/06/16 12:25:50;;;;;;;5.00;3.80;;;32.70;54.90;;;;;;4844293;29;20535;-87
2021/06/16 12:28:17;;;;;;;4.50;3.53;;;32.70;53.40;;;;;;4845877;29;20193;-87
2021/06/16 12:30:44;;;;;;;6.30;3.73;;;33.10;51.20;;;;;;4845719;29;20529;-87
2021/06/16 12:33:23;;;;;;;3.67;3.37;;;33.10;55.40;;;;;;4841012;29;21285;-87
2021/06/16 12:35:59;;;;;;;4.80;3.67;;;33.00;52.90;;;;;;4847951;29;20445;-87
2021/06/16 12:38:46;;;;;;;5.07;3.70;;;33.00;53.30;;;;;;4840350;29;21056;-87
2021/06/16 12:41:32;;;;;;;4.80;3.80;;;32.60;53.60;;;;;;4842077;29;20960;-87
2021/06/16 12:44:38;;;;;;;4.43;4.13;;;33.00;54.00;;;;;;4859964;29;20985;-87
2021/06/16 12:47:11;;;;;;;4.23;3.83;;;33.30;55.80;;;;;;4834373;29;20450;-87
2021/06/16 12:49:43;;;;;;;4.03;3.53;;;33.30;55.20;;;;;;4844103;29;20803;-87
2021/06/16 12:52:14;;;;;;;4.17;3.70;;;33.80;51.90;;;;;;4850621;29;20849;-87
2021/06/16 12:54:49;;;;;;;3.67;3.33;;;34.20;49.60;;;;;;4840509;29;20786;-88
2021/06/16 12:57:22;;;;;;;3.90;3.60;;;34.80;51.10;;;;;;4844559;29;20443;-88
2021/06/16 12:59:55;;;;;;;3.63;3.43;;;35.00;46.30;;;;;;4844618;29;21157;-88
2021/06/16 13:02:30;;;;;;;4.53;4.10;;;35.00;51.40;;;;;;4845840;29;20486;-87
2021/06/16 13:04:57;;;;;;;3.60;3.30;;;35.10;47.00;;;;;;4849026;29;20474;-87
2021/06/16 13:07:38;;;;;;;3.80;3.60;;;34.70;48.20;;;;;;4848329;29;20494;-87
2021/06/16 13:10:07;;;;;;;3.80;3.50;;;34.50;43.20;;;;;;4848636;29;20454;-88